Latest Coastal Weather Observations for Hogan Island

IDT60701

Issued at 10:21 pm EST Saturday 5 September 2015 (issued every 10 minutes, with the page automatically refreshed every 10 minutes)

About coastal observations | Map of coastal stations | Coastal observations for TAS | Marine services | Other Formats
Station Details ID: 200838 Name: HOGAN ISLAND Lat: -39.22 Lon: 146.98 Height: 116.0 m
Data from the previous 72 hours. | See also: Recent months at Hogan Island
Date/Time
EST
Temp

°C
Wind Pressure Rain
since 9am
mm
Weather Cloud Vis
km
Sea
Height
m
Swell
Dir
 
Speed
knots
Gust
knots
hPa Trend Height
m
Period
s
Dir
05/09:30pm 8.6 SW 6 7 1024.4 - 0.0 - - - - - - -
05/09:00pm 8.2 SSW 6 7 1024.3 - 0.0 - - - - - - -
05/08:30pm 8.9 SW 6 7 1024.0 - 0.0 - - - - - - -
05/08:00pm 8.6 WSW 7 8 1023.7 - 0.0 - - - - - - -
05/07:30pm 9.0 WSW 9 11 1023.5 - 0.0 - - - - - - -
05/07:00pm 9.2 WSW 12 14 1023.3 - 0.0 - - - - - - -
05/06:30pm 9.4 WSW 14 16 1023.0 - 0.0 - - - - - - -
05/06:00pm 9.7 WSW 14 16 1022.9 - 0.0 - - - - - - -
05/05:30pm 10.1 WSW 16 19 1022.4 - 0.0 - - - - - - -
05/05:00pm 11.0 WSW 17 19 1022.3 - 0.0 - - - - - - -
05/04:30pm 11.5 WSW 18 21 1022.0 - 0.0 - - - - - - -
05/04:00pm 12.0 WSW 20 23 1021.9 - 0.0 - - - - - - -
05/03:30pm 12.4 WSW 18 21 1021.9 - 0.0 - - - - - - -
05/03:00pm 12.7 WSW 19 22 1022.0 - 0.0 - - - - - - -
05/02:30pm 12.9 WSW 20 24 1022.0 - 0.0 - - - - - - -
05/02:00pm 12.8 WSW 22 25 1021.8 - 0.0 - - - - - - -
05/01:30pm 13.4 WSW 22 25 1021.8 - 0.0 - - - - - - -
05/01:00pm 12.7 WSW 21 24 1022.1 - 0.0 - - - - - - -
05/12:30pm 13.2 WSW 20 23 1022.5 - 0.0 - - - - - - -
05/12:00pm 12.7 WSW 21 25 1022.6 - 0.0 - - - - - - -
05/11:30am 12.9 WSW 22 25 1022.5 - 0.0 - - - - - - -
05/11:00am 12.0 WSW 24 27 1022.7 - 0.0 - - - - - - -
05/10:30am 12.1 WSW 24 28 1022.7 - 0.0 - - - - - - -
05/10:00am 11.9 WSW 26 29 1022.6 - 0.0 - - - - - - -
05/09:30am 11.5 WSW 26 29 1022.7 - 0.0 - - - - - - -
05/09:00am 10.2 WSW 24 28 1022.9 - 0.2 - - - - - - -
05/08:30am 10.4 WSW 29 34 1022.7 - 0.2 - - - - - - -
05/08:00am 10.2 WSW 27 31 1022.5 - 0.2 - - - - - - -
05/07:30am 9.9 WSW 28 33 1022.2 - 0.2 - - - - - - -
05/07:00am 9.8 WSW 26 35 1021.7 - 0.2 - - - - - - -
05/06:30am 9.8 WSW 29 34 1021.3 - 0.2 - - - - - - -
05/06:00am 9.9 W 28 31 1021.1 - 0.2 - - - - - - -
05/05:30am 9.7 WSW 28 33 1020.9 - 0.2 - - - - - - -
05/05:00am 9.7 WSW 29 33 1020.7 - 0.2 - - - - - - -
05/04:30am 9.1 WSW 29 35 1020.6 - 0.2 - - - - - - -
05/04:00am 9.8 WSW 27 32 1020.3 - 0.2 - - - - - - -
05/03:30am 9.5 W 28 31 1020.3 - 0.2 - - - - - - -
05/03:00am 9.7 W 28 31 1020.4 - 0.2 - - - - - - -
05/02:30am 9.4 W 29 34 1020.5 - 0.2 - - - - - - -
05/02:00am 9.6 WSW 29 34 1020.8 - 0.2 - - - - - - -
05/01:30am 9.5 WSW 29 34 1021.0 - 0.2 - - - - - - -
05/01:00am 9.3 W 25 29 1021.3 - 0.0 - - - - - - -
05/12:30am 9.4 W 29 33 1021.2 - 0.0 - - - - - - -
05/12:00am 9.5 W 28 32 1021.4 - 0.0 - - - - - - -
 
Date/Time
EST
Temp

°C
Wind Pressure Rain
since 9am
mm
Weather Cloud Vis
km
Sea
Height
m
Swell
Dir
 
Speed
knots
Gust
knots
hPa Trend Height
m
Period
s
Dir
04/11:30pm 10.0 W 27 32 1021.6 - 0.0 - - - - - - -
04/11:00pm 10.2 W 32 38 1021.5 - 0.0 - - - - - - -
04/10:30pm 10.3 W 27 34 1021.5 - 0.0 - - - - - - -
04/10:00pm 10.1 W 28 32 1021.6 - 0.0 - - - - - - -
04/09:30pm 10.2 W 30 37 1021.7 - 0.0 - - - - - - -
04/09:00pm 10.5 W 28 32 1021.6 - 0.0 - - - - - - -
04/08:30pm 10.4 W 27 32 1021.5 - 0.0 - - - - - - -
04/08:00pm 10.2 W 30 34 1021.5 - 0.0 - - - - - - -
04/07:30pm 10.2 W 28 33 1021.6 - 0.0 - - - - - - -
04/07:00pm 10.0 W 29 33 1021.5 - 0.0 - - - - - - -
04/06:30pm 9.6 W 28 33 1021.4 - 0.0 - - - - - - -
04/06:00pm 10.1 W 33 38 1020.9 - 0.0 - - - - - - -
04/05:30pm 10.2 W 30 35 1020.6 - 0.0 - - - - - - -
04/05:00pm 10.3 W 31 35 1020.6 - 0.0 - - - - - - -
04/04:30pm 10.4 W 30 36 1020.7 - 0.0 - - - - - - -
04/04:00pm 10.5 W 29 34 1020.8 - 0.0 - - - - - - -
04/03:30pm 10.7 W 30 36 1020.7 - 0.0 - - - - - - -
04/03:00pm 10.7 W 32 38 1020.8 - 0.0 - - - - - - -
04/02:30pm 10.8 W 28 33 1020.8 - 0.0 - - - - - - -
04/02:00pm 11.2 W 30 33 1020.9 - 0.0 - - - - - - -
04/01:30pm 11.1 W 27 32 1021.1 - 0.0 - - - - - - -
04/01:00pm 11.5 W 28 33 1021.6 - 0.0 - - - - - - -
04/12:30pm 10.9 W 28 33 1021.8 - 0.0 - - - - - - -
04/12:00pm 11.3 W 25 32 1022.2 - 0.0 - - - - - - -
04/11:30am 11.4 WSW 24 29 1022.5 - 0.0 - - - - - - -
04/11:00am 10.4 WSW 23 27 1022.8 - 0.0 - - - - - - -
04/10:30am 11.3 WSW 25 29 1022.9 - 0.0 - - - - - - -
04/10:00am 10.5 WSW 27 31 1023.0 - 0.0 - - - - - - -
04/09:30am 9.6 WSW 27 32 1022.9 - 0.0 - - - - - - -
04/09:00am 9.7 WSW 27 31 1022.8 - 0.2 - - - - - - -
04/08:30am 9.5 WSW 26 30 1022.7 - 0.2 - - - - - - -
04/08:00am 8.9 W 23 26 1022.4 - 0.2 - - - - - - -
04/07:30am 8.5 W 24 27 1022.2 - 0.2 - - - - - - -
04/07:00am 8.5 W 23 27 1021.9 - 0.2 - - - - - - -
04/06:30am 8.4 W 22 25 1021.6 - 0.2 - - - - - - -
04/06:00am 8.5 W 21 23 1021.5 - 0.2 - - - - - - -
04/05:30am 8.6 W 21 24 1021.5 - 0.2 - - - - - - -
04/05:00am 8.7 W 18 21 1021.4 - 0.2 - - - - - - -
04/04:30am 8.9 W 18 21 1021.3 - 0.2 - - - - - - -
04/04:00am 9.0 W 18 21 1020.9 - 0.2 - - - - - - -
04/03:30am 9.2 W 16 18 1020.8 - 0.0 - - - - - - -
04/03:27am 9.3 W 15 18 1020.8 - 0.0 - - - - - - -
04/03:00am 9.1 NNE 6 7 1020.9 - 0.0 - - - - - - -
04/02:30am 9.3 N 10 13 1021.0 - 0.0 - - - - - - -
04/02:00am 9.7 N 9 12 1021.2 - 0.0 - - - - - - -
04/01:30am 9.2 N 12 14 1021.1 - 0.0 - - - - - - -
04/01:00am 9.2 NNE 12 14 1021.0 - 0.0 - - - - - - -
04/12:30am 10.0 ENE 9 10 1021.2 - 0.0 - - - - - - -
04/12:00am 10.3 NE 11 14 1021.2 - 0.0 - - - - - - -
 
Date/Time
EST
Temp

°C
Wind Pressure Rain
since 9am
mm
Weather Cloud Vis
km
Sea
Height
m
Swell
Dir
 
Speed
knots
Gust
knots
hPa Trend Height
m
Period
s
Dir
03/11:30pm 10.5 ENE 11 13 1020.8 - 0.0 - - - - - - -
03/10:30pm 10.4 E 14 17 1020.3 - 0.0 - - - - - - -
03/10:00pm 10.5 E 14 17 1020.3 - 0.0 - - - - - - -
03/09:30pm 10.6 E 14 16 1020.0 - 0.0 - - - - - - -
03/09:00pm 10.5 E 14 17 1019.9 - 0.0 - - - - - - -
03/08:30pm 10.1 E 15 17 1019.3 - 0.0 - - - - - - -
03/08:00pm 10.2 E 12 15 1019.2 - 0.0 - - - - - - -
03/07:30pm 10.8 E 14 16 1019.1 - 0.0 - - - - - - -
03/07:00pm 10.8 E 14 18 1018.6 - 0.0 - - - - - - -
03/06:30pm 10.6 NE 9 11 1018.3 - 0.0 - - - - - - -
03/06:00pm 10.9 ENE 9 11 1017.8 - 0.0 - - - - - - -
03/05:30pm 11.2 ENE 9 11 1017.0 - 0.0 - - - - - - -
03/05:00pm 11.5 E 6 6 1016.5 - 0.0 - - - - - - -
03/04:30pm 11.6 ESE 5 6 1015.9 - 0.0 - - - - - - -
03/04:00pm 12.2 SE 7 8 1015.5 - 0.0 - - - - - - -
03/03:30pm 12.8 SSE 8 9 1015.0 - 0.0 - - - - - - -
03/03:00pm 13.3 SSE 10 12 1014.6 - 0.0 - - - - - - -
03/02:30pm 13.3 S 10 13 1014.0 - 0.0 - - - - - - -
03/02:00pm 13.7 SW 11 15 1013.7 - 0.0 - - - - - - -
03/01:30pm 13.5 SW 13 17 1013.4 - 0.0 - - - - - - -
03/01:00pm 13.2 SW 13 16 1013.3 - 0.0 - - - - - - -
03/12:30pm 12.4 SW 12 17 1013.1 - 0.0 - - - - - - -
03/12:00pm 12.6 SSW 12 17 1013.1 - 0.0 - - - - - - -
03/11:30am 12.3 SW 13 17 1012.9 - 0.0 - - - - - - -
03/11:00am 12.2 SW 18 21 1012.6 - 0.0 - - - - - - -
03/10:30am 11.8 SW 20 24 1011.9 - 0.0 - - - - - - -
03/10:00am 12.2 SW 20 23 1011.3 - 0.0 - - - - - - -
03/09:30am 12.0 SW 16 19 1010.9 - 0.0 - - - - - - -
03/09:00am 11.3 SW 14 17 1010.4 - 0.0 - - - - - - -
03/08:30am 10.8 SSW 12 16 1010.2 - 0.0 - - - - - - -
03/08:00am 10.7 S 11 12 1010.0 - 0.0 - - - - - - -
03/07:30am 10.4 S 11 12 1009.6 - 0.0 - - - - - - -
03/07:00am 9.9 S 9 11 1009.2 - 0.0 - - - - - - -
03/06:30am 9.8 SSE 10 13 1008.9 - 0.0 - - - - - - -
03/06:00am 10.1 SSE 13 16 1008.6 - 0.0 - - - - - - -
03/05:30am 9.9 SSE 15 17 1008.1 - 0.0 - - - - - - -
03/05:00am 10.1 S 16 19 1007.7 - 0.0 - - - - - - -
03/04:30am 10.0 S 15 18 1007.5 - 0.0 - - - - - - -
03/04:00am 10.1 S 13 16 1007.4 - 0.0 - - - - - - -
03/03:30am 10.1 S 13 16 1007.2 - 0.0 - - - - - - -
03/03:00am 10.1 S 13 16 1007.3 - 0.0 - - - - - - -
03/02:30am 9.9 SSE 12 14 1007.4 - 0.0 - - - - - - -
03/02:00am 10.1 SSE 12 14 1007.6 - 0.0 - - - - - - -
03/01:30am 10.1 SE 11 12 1007.8 - 0.0 - - - - - - -
03/01:00am 10.1 SSE 11 12 1007.9 - 0.0 - - - - - - -
03/12:30am 9.9 SSE 11 12 1008.0 - 0.0 - - - - - - -
03/12:00am 10.1 SSE 11 13 1008.1 - 0.0 - - - - - - -
 
Date/Time
EST
Temp

°C
Wind Pressure Rain
since 9am
mm
Weather Cloud Vis
km
Sea
Height
m
Swell
Dir
 
Speed
knots
Gust
knots
hPa Trend Height
m
Period
s
Dir
02/11:30pm 9.8 SE 9 10 1008.2 - 0.0 - - - - - - -
02/11:00pm 10.1 ESE 10 11 1008.6 - 0.0 - - - - - - -
02/10:30pm 10.0 ESE 10 11 1008.7 - 0.0 - - - - - - -

Other Formats:

Comma delimited format used in spreadsheet applications
http://www.bom.gov.au/fwo/IDT60701/IDT60701.94949.axf

JavaScript Object Notation format (JSON) in row-major order
http://www.bom.gov.au/fwo/IDT60701/IDT60701.94949.json